Hanjin Valencia — 3FSR7 — position and weather

sailwx.info

Track history (hours):
 
Tides and Currents Weather Stations Pressure Air Temp Water Temp Dewpoint Dewpoint Depression Visibility Wind Speed Wind Dir Waves Ship Positions

Hanjin Valencia

Last reported at 2017-Sep-16 22:32 UTC. Time now 2017-Sep-23 23:54 UTC.
Position N 01°16' E 104°01'.

Length 183 m; draft 7 m.

Type: Tanker. MMSI: 374057000.

Date/timePositionNaut miles runAvg speedWind from/ knotsBaromVisibWave heightAir tempDewpointWater temp
2017-Sep-16 22:32N 01°16' E 104°01'2 7.1
2017-Sep-16 22:16N 01°17' E 103°60'0 0.2
2017-Sep-16 19:48N 01°17' E 103°60'0 0.0
2017-Sep-16 19:15N 01°17' E 103°60'0 0.0
2017-Sep-16 18:48N 01°17' E 103°60'0 0.0
2017-Sep-16 17:51N 01°17' E 103°60'0 0.0
2017-Sep-16 17:18N 01°17' E 103°60'0 0.0
2017-Sep-16 16:54N 01°17' E 103°60'0 0.0
2017-Sep-16 16:18N 01°17' E 103°60'0 0.0
2017-Sep-16 16:01N 01°17' E 103°60'0 0.0
2017-Sep-16 14:09N 01°17' E 103°60'0 0.0
2017-Sep-16 13:51N 01°17' E 103°60'0 0.1
2017-Sep-16 10:44N 01°17' E 103°60'1 3.2
2017-Sep-16 10:30N 01°16' E 103°59'3 5.9
2017-Sep-16 09:59N 01°14' E 103°57'3 6.9
2017-Sep-16 09:30N 01°13' E 103°54'4 8.6
2017-Sep-16 09:00N 01°11' E 103°50'4 9.0
2017-Sep-16 08:30N 01°09' E 103°46'4 8.6
2017-Sep-16 08:01N 01°05' E 103°43'4 8.7
2017-Sep-16 07:30N 01°03' E 103°40'4 8.4
2017-Sep-16 07:00N 01°04' E 103°36'4 7.9
2017-Sep-16 06:30N 01°06' E 103°33'4 7.2
2017-Sep-16 05:59N 01°08' E 103°29'4 9.1
2017-Sep-16 05:30N 01°11' E 103°26'510.0
2017-Sep-16 04:58N 01°14' E 103°21'  
Track history (hours):
 
Tides and Currents Weather Stations Pressure Air Temp Water Temp Dewpoint Dewpoint Depression Visibility Wind Speed Wind Dir Waves Ship Positions

Hanjin Valencia

Last reported at 2017-Sep-16 22:32 UTC. Time now 2017-Sep-23 23:54 UTC.
Position N 01°16' E 104°01'.

Length 183 m; draft 7 m.

Type: Tanker. MMSI: 374057000.

Date/timePositionNaut miles runAvg speedWind from/ knotsBaromVisibWave heightAir tempDewpointWater temp
2017-Sep-16 22:32N 01°16' E 104°01'2 7.1
2017-Sep-16 22:16N 01°17' E 103°60'0 0.2
2017-Sep-16 19:48N 01°17' E 103°60'0 0.0
2017-Sep-16 19:15N 01°17' E 103°60'0 0.0
2017-Sep-16 18:48N 01°17' E 103°60'0 0.0
2017-Sep-16 17:51N 01°17' E 103°60'0 0.0
2017-Sep-16 17:18N 01°17' E 103°60'0 0.0
2017-Sep-16 16:54N 01°17' E 103°60'0 0.0
2017-Sep-16 16:18N 01°17' E 103°60'0 0.0
2017-Sep-16 16:01N 01°17' E 103°60'0 0.0
2017-Sep-16 14:09N 01°17' E 103°60'0 0.0
2017-Sep-16 13:51N 01°17' E 103°60'0 0.1
2017-Sep-16 10:44N 01°17' E 103°60'1 3.2
2017-Sep-16 10:30N 01°16' E 103°59'3 5.9
2017-Sep-16 09:59N 01°14' E 103°57'3 6.9
2017-Sep-16 09:30N 01°13' E 103°54'4 8.6
2017-Sep-16 09:00N 01°11' E 103°50'4 9.0
2017-Sep-16 08:30N 01°09' E 103°46'4 8.6
2017-Sep-16 08:01N 01°05' E 103°43'4 8.7
2017-Sep-16 07:30N 01°03' E 103°40'4 8.4
2017-Sep-16 07:00N 01°04' E 103°36'4 7.9
2017-Sep-16 06:30N 01°06' E 103°33'4 7.2
2017-Sep-16 05:59N 01°08' E 103°29'4 9.1
2017-Sep-16 05:30N 01°11' E 103°26'510.0
2017-Sep-16 04:58N 01°14' E 103°21'  

Dump ship's entire track history